createdAt,value
2022-11-12T00:01:25.246Z,101582.59
2022-11-12T00:04:11.113Z,101583.97
2022-11-12T00:06:57.174Z,101587.97
2022-11-12T00:09:43.260Z,101582.88
2022-11-12T00:12:30.813Z,101584.78
2022-11-12T00:15:17.156Z,101582.88
2022-11-12T00:18:03.031Z,101586.09
2022-11-12T00:20:49.412Z,101585.00
2022-11-12T00:23:35.263Z,101586.50
2022-11-12T00:26:21.397Z,101587.22
2022-11-12T00:29:08.794Z,101587.47
2022-11-12T00:31:54.695Z,101585.41
2022-11-12T00:34:40.691Z,101585.25
2022-11-12T00:37:26.864Z,101585.59
2022-11-12T00:40:13.275Z,101594.06
2022-11-12T00:42:59.378Z,101599.03
2022-11-12T00:45:46.563Z,101594.72
2022-11-12T00:48:32.772Z,101598.66
2022-11-12T00:51:19.056Z,101603.19
2022-11-12T00:54:05.573Z,101612.31
2022-11-12T00:56:51.487Z,101610.28
2022-11-12T00:59:37.328Z,101617.09
2022-11-12T01:02:24.657Z,101614.28
2022-11-12T01:05:11.198Z,101611.81
2022-11-12T01:07:57.251Z,101615.97
2022-11-12T01:10:43.216Z,101616.25
2022-11-12T01:13:29.414Z,101620.16
2022-11-12T01:16:17.258Z,101612.50
2022-11-12T01:19:06.408Z,101611.59
2022-11-12T01:21:52.594Z,101613.63
2022-11-12T01:24:38.707Z,101617.09
2022-11-12T01:27:24.876Z,101613.56
2022-11-12T01:30:12.023Z,101615.06
2022-11-12T01:32:58.343Z,101614.56
2022-11-12T01:35:45.536Z,101616.41
2022-11-12T01:38:34.929Z,101612.41
2022-11-12T01:41:25.337Z,101609.72
2022-11-12T01:44:14.917Z,101607.25
2022-11-12T01:47:05.830Z,101618.38
2022-11-12T01:49:57.165Z,101613.19
2022-11-12T01:52:47.232Z,101622.22
2022-11-12T01:55:36.406Z,101612.22
2022-11-12T01:58:26.044Z,101615.19
2022-11-12T02:01:12.202Z,101607.75
2022-11-12T02:03:58.310Z,101613.53
2022-11-12T02:06:45.553Z,101617.69
2022-11-12T02:09:33.304Z,101609.34
2022-11-12T02:12:40.744Z,101616.75
2022-11-12T02:15:27.439Z,101620.25
2022-11-12T02:18:13.295Z,101614.63
2022-11-12T02:21:04.771Z,101611.41
2022-11-12T02:24:00.100Z,101614.50
2022-11-12T02:26:51.842Z,101614.84
2022-11-12T02:29:46.057Z,101615.19
2022-11-12T02:32:32.225Z,101608.56
2022-11-12T02:35:18.437Z,101610.38
2022-11-12T02:38:05.367Z,101610.56
2022-11-12T02:40:52.683Z,101608.25
2022-11-12T02:43:39.241Z,101612.28
2022-11-12T02:46:25.383Z,101612.53
2022-11-12T02:49:11.571Z,101607.19
2022-11-12T02:51:57.864Z,101608.25
2022-11-12T02:54:43.783Z,101614.66
2022-11-12T02:57:31.273Z,101599.53
2022-11-12T03:00:18.199Z,101601.66
2022-11-12T03:03:04.308Z,101600.56
2022-11-12T03:05:56.374Z,101601.41
2022-11-12T03:08:42.133Z,101596.56
2022-11-12T03:11:28.100Z,101598.72
2022-11-12T03:14:15.634Z,101589.47
2022-11-12T03:17:01.879Z,101598.03
2022-11-12T03:19:47.855Z,101595.06
2022-11-12T03:22:33.930Z,101599.03
2022-11-12T03:25:20.097Z,101601.75
2022-11-12T03:28:07.607Z,101603.88
2022-11-12T03:30:58.362Z,101601.50
2022-11-12T03:33:44.680Z,101601.09
2022-11-12T03:36:30.600Z,101604.84
2022-11-12T03:39:16.912Z,101599.88
2022-11-12T03:42:03.339Z,101599.38
2022-11-12T03:44:49.644Z,101589.81
2022-11-12T03:47:37.115Z,101594.41
2022-11-12T03:50:24.675Z,101596.09
2022-11-12T03:53:11.681Z,101592.63
2022-11-12T03:55:57.984Z,101586.34
2022-11-12T03:58:44.003Z,101594.06
2022-11-12T04:01:30.324Z,101586.41
2022-11-12T04:04:17.779Z,101586.66
2022-11-12T04:07:21.324Z,101585.69
2022-11-12T04:10:07.768Z,101580.34
2022-11-12T04:13:11.063Z,101573.31
2022-11-12T04:16:17.309Z,101577.25
2022-11-12T04:19:22.075Z,101571.94
2022-11-12T04:22:11.236Z,101571.19
2022-11-12T04:25:15.008Z,101567.59
2022-11-12T04:28:01.207Z,101574.88
2022-11-12T04:30:46.180Z,101561.88
2022-11-12T04:33:32.178Z,101568.91
2022-11-12T04:36:18.252Z,101559.72
2022-11-12T04:39:05.938Z,101561.63
2022-11-12T04:42:09.631Z,101553.25
2022-11-12T04:45:05.175Z,101557.53
2022-11-12T04:47:51.049Z,101564.81
2022-11-12T04:50:37.455Z,101562.34
2022-11-12T04:53:23.591Z,101557.88
2022-11-12T04:56:10.828Z,101562.88
2022-11-12T04:58:56.912Z,101553.28
2022-11-12T05:01:42.948Z,101556.88
2022-11-12T05:04:29.186Z,101560.25
2022-11-12T05:07:15.720Z,101563.47
2022-11-12T05:10:01.771Z,101563.38
2022-11-12T05:12:49.207Z,101559.56
2022-11-12T05:15:35.419Z,101565.84
2022-11-12T05:18:21.432Z,101565.78
2022-11-12T05:21:21.498Z,101568.63
2022-11-12T05:24:08.429Z,101574.84
2022-11-12T05:26:55.029Z,101568.41
2022-11-12T05:29:42.799Z,101570.16
2022-11-12T05:32:28.923Z,101566.06
2022-11-12T05:35:14.955Z,101558.97
2022-11-12T05:38:01.268Z,101567.94
2022-11-12T05:40:47.351Z,101560.44
2022-11-12T05:43:33.677Z,101559.25
2022-11-12T05:46:21.363Z,101563.25
2022-11-12T05:49:07.301Z,101560.00
2022-11-12T05:51:53.471Z,101571.53
2022-11-12T05:54:39.518Z,101569.97
2022-11-12T05:57:27.803Z,101572.59
2022-11-12T06:00:14.660Z,101557.03
2022-11-12T06:03:02.320Z,101559.25
2022-11-12T06:05:48.315Z,101568.56
2022-11-12T06:08:34.515Z,101570.78
2022-11-12T06:11:20.704Z,101570.16
2022-11-12T06:14:09.980Z,101577.47
2022-11-12T06:16:56.176Z,101574.16
2022-11-12T06:19:43.757Z,101573.16
2022-11-12T06:22:29.939Z,101572.47
2022-11-12T06:25:16.350Z,101573.81
2022-11-12T06:28:02.289Z,101577.38
2022-11-12T06:30:48.069Z,101570.09
2022-11-12T06:33:34.211Z,101572.28
2022-11-12T06:36:21.943Z,101574.00
2022-11-12T06:39:08.187Z,101577.88
2022-11-12T06:41:54.791Z,101593.63
2022-11-12T06:44:41.137Z,101589.56
2022-11-12T06:47:26.996Z,101592.19
2022-11-12T06:50:13.356Z,101589.31
2022-11-12T06:53:01.015Z,101585.56
2022-11-12T06:55:46.888Z,101581.53
2022-11-12T06:58:33.493Z,101588.44
2022-11-12T07:01:20.131Z,101587.19
2022-11-12T07:04:06.353Z,101600.59
2022-11-12T07:06:52.643Z,101596.28
2022-11-12T07:09:40.132Z,101605.25
2022-11-12T07:12:26.256Z,101600.56
2022-11-12T07:15:12.213Z,101599.03
2022-11-12T07:17:58.344Z,101599.47
2022-11-12T07:20:44.519Z,101595.88
2022-11-12T07:23:32.604Z,101594.97
2022-11-12T07:26:22.301Z,101591.59
2022-11-12T07:29:08.394Z,101581.50
2022-11-12T07:31:54.407Z,101582.22
2022-11-12T07:34:40.556Z,101577.75
2022-11-12T07:37:26.814Z,101582.88
2022-11-12T07:40:13.136Z,101591.94
2022-11-12T07:43:01.164Z,101591.50
2022-11-12T07:45:47.023Z,101581.09
2022-11-12T07:48:36.319Z,101588.78
2022-11-12T07:51:23.708Z,101593.41
2022-11-12T07:54:09.860Z,101583.38
2022-11-12T07:56:55.868Z,101593.34
2022-11-12T07:59:46.096Z,101590.00
2022-11-12T08:02:32.459Z,101601.47
2022-11-12T08:05:21.317Z,101595.59
2022-11-12T08:08:07.844Z,101594.28
2022-11-12T08:10:56.384Z,101592.38
2022-11-12T08:13:42.636Z,101595.63
2022-11-12T08:16:29.753Z,101598.47
2022-11-12T08:19:15.904Z,101596.47
2022-11-12T08:22:02.048Z,101598.88
2022-11-12T08:24:47.903Z,101589.88
2022-11-12T08:27:34.242Z,101592.66
2022-11-12T08:30:20.244Z,101591.84
2022-11-12T08:33:07.660Z,101593.06
2022-11-12T08:35:53.536Z,101586.06
2022-11-12T08:38:40.158Z,101587.09
2022-11-12T08:41:26.148Z,101583.72
2022-11-12T08:44:12.157Z,101581.72
2022-11-12T08:46:59.217Z,101581.22
2022-11-12T08:49:48.151Z,101592.41
2022-11-12T08:52:34.287Z,101596.31
2022-11-12T08:55:20.480Z,101599.88
2022-11-12T08:58:07.116Z,101602.50
2022-11-12T09:00:53.768Z,101602.03
2022-11-12T09:03:40.034Z,101611.44
2022-11-12T09:06:27.308Z,101614.78
2022-11-12T09:09:13.492Z,101606.69
2022-11-12T09:12:02.211Z,101606.06
2022-11-12T09:14:56.126Z,101608.44
2022-11-12T09:17:42.376Z,101610.41
2022-11-12T09:20:29.900Z,101616.28
2022-11-12T09:23:20.838Z,101610.41
2022-11-12T09:26:07.731Z,101615.72
2022-11-12T09:28:54.831Z,101618.25
2022-11-12T09:31:40.952Z,101616.56
2022-11-12T09:34:26.960Z,101616.44
2022-11-12T09:37:13.045Z,101619.63
2022-11-12T09:40:00.488Z,101616.63
2022-11-12T09:42:48.068Z,101620.97
2022-11-12T09:45:34.319Z,101620.22
2022-11-12T09:48:24.192Z,101621.88
2022-11-12T09:51:14.209Z,101626.06
2022-11-12T09:54:01.511Z,101619.63
2022-11-12T09:56:49.748Z,101621.94
2022-11-12T09:59:39.508Z,101621.06
2022-11-12T10:02:29.512Z,101620.34
2022-11-12T10:05:24.767Z,101621.72
2022-11-12T10:08:29.302Z,101612.25
2022-11-12T10:11:31.047Z,101615.38
2022-11-12T10:14:26.459Z,101613.88
2022-11-12T10:17:16.237Z,101600.69
2022-11-12T10:20:10.312Z,101605.19
2022-11-12T10:23:09.963Z,101601.56
2022-11-12T10:25:59.399Z,101599.97
2022-11-12T10:28:48.007Z,101602.53
2022-11-12T10:31:35.251Z,101598.22
2022-11-12T10:34:22.950Z,101597.13
2022-11-12T10:37:13.896Z,101604.41
2022-11-12T10:39:59.991Z,101595.75
2022-11-12T10:42:57.624Z,101598.31
2022-11-12T10:45:44.472Z,101603.84
2022-11-12T10:48:34.223Z,101598.44
2022-11-12T10:51:23.843Z,101597.88
2022-11-12T10:54:30.236Z,101604.47
2022-11-12T10:57:21.094Z,101603.94
2022-11-12T11:00:19.030Z,101599.03
2022-11-12T11:03:08.244Z,101597.47
2022-11-12T11:05:58.218Z,101600.78
2022-11-12T11:08:45.682Z,101586.28
2022-11-12T11:11:32.659Z,101591.34
2022-11-12T11:14:27.262Z,101582.09
2022-11-12T11:17:17.347Z,101582.94
2022-11-12T11:20:04.700Z,101588.09
2022-11-12T11:22:57.298Z,101571.38
2022-11-12T11:25:43.924Z,101576.47
2022-11-12T11:28:34.460Z,101571.47
2022-11-12T11:31:28.097Z,101576.31
2022-11-12T11:34:24.192Z,101579.66
2022-11-12T11:37:23.193Z,101574.81
2022-11-12T11:40:17.996Z,101578.31
2022-11-12T11:43:16.603Z,101565.59
2022-11-12T11:46:08.546Z,101572.19
2022-11-12T11:49:07.226Z,101570.16
2022-11-12T11:51:57.127Z,101561.00
2022-11-12T11:54:54.667Z,101568.75
2022-11-12T11:57:49.892Z,101558.00
2022-11-12T12:00:43.456Z,101557.06
2022-11-12T12:03:33.141Z,101554.75
2022-11-12T12:06:25.511Z,101546.66
2022-11-12T12:09:24.212Z,101550.78
2022-11-12T12:12:21.467Z,101542.47
2022-11-12T12:15:31.547Z,101537.72
2022-11-12T12:18:27.349Z,101530.41
2022-11-12T12:21:17.079Z,101528.00
2022-11-12T12:24:04.635Z,101529.47
2022-11-12T12:26:53.507Z,101527.75
2022-11-12T12:29:41.951Z,101533.00
2022-11-12T12:32:33.221Z,101528.69
2022-11-12T12:35:23.989Z,101524.66
2022-11-12T12:38:12.721Z,101520.84
2022-11-12T12:41:03.995Z,101505.13
2022-11-12T12:43:52.312Z,101495.69
2022-11-12T12:46:40.227Z,101497.94
2022-11-12T12:49:31.861Z,101499.50
2022-11-12T12:52:18.008Z,101504.84
2022-11-12T12:55:04.074Z,101503.25
2022-11-12T12:57:59.722Z,101499.53
2022-11-12T13:00:50.700Z,101494.91
2022-11-12T13:03:50.324Z,101499.91
2022-11-12T13:06:39.596Z,101497.09
2022-11-12T13:09:26.572Z,101492.63
2022-11-12T13:12:24.545Z,101493.50
2022-11-12T13:15:14.939Z,101491.59
2022-11-12T13:18:00.847Z,101490.44
2022-11-12T13:21:09.344Z,101492.59
2022-11-12T13:24:13.148Z,101489.31
2022-11-12T13:27:00.396Z,101501.69
2022-11-12T13:29:47.905Z,101492.31
2022-11-12T13:32:35.910Z,101489.38
2022-11-12T13:35:30.533Z,101487.31
2022-11-12T13:38:16.457Z,101495.78
2022-11-12T13:41:10.308Z,101489.38
2022-11-12T13:43:57.414Z,101483.88
2022-11-12T13:46:44.871Z,101488.13
2022-11-12T13:49:31.301Z,101481.38
2022-11-12T13:52:19.777Z,101482.78
2022-11-12T13:55:07.917Z,101482.84
2022-11-12T13:57:55.755Z,101484.34
2022-11-12T14:00:41.661Z,101490.88
2022-11-12T14:03:30.040Z,101485.19
2022-11-12T14:06:17.637Z,101492.38
2022-11-12T14:09:25.737Z,101483.13
2022-11-12T14:12:21.095Z,101483.59
2022-11-12T14:15:32.839Z,101482.13
2022-11-12T14:18:26.793Z,101476.09
2022-11-12T14:21:16.958Z,101472.44
2022-11-12T14:24:03.937Z,101477.88
2022-11-12T14:26:50.077Z,101475.94
2022-11-12T14:29:39.896Z,101475.88
2022-11-12T14:32:36.473Z,101483.13
2022-11-12T14:35:31.983Z,101480.41
2022-11-12T14:38:20.136Z,101479.63
2022-11-12T14:41:10.687Z,101488.81
2022-11-12T14:44:11.354Z,101484.63
2022-11-12T14:46:59.631Z,101482.28
2022-11-12T14:49:49.051Z,101477.03
2022-11-12T14:52:37.240Z,101468.94
2022-11-12T14:55:26.455Z,101479.00
2022-11-12T14:58:14.381Z,101477.19
2022-11-12T15:01:47.746Z,101475.38
2022-11-12T15:04:25.743Z,101467.66
2022-11-12T15:07:26.933Z,101458.34
2022-11-12T15:10:34.245Z,101463.63
2022-11-12T15:13:21.737Z,101469.66
2022-11-12T15:16:09.197Z,101468.88
2022-11-12T15:19:04.978Z,101468.78
2022-11-12T15:21:52.595Z,101468.16
2022-11-12T15:24:43.788Z,101465.25
2022-11-12T15:27:36.184Z,101471.97
2022-11-12T15:30:24.467Z,101470.81
2022-11-12T15:33:17.568Z,101466.06
2022-11-12T15:36:03.603Z,101474.56
2022-11-12T15:38:51.437Z,101465.59
2022-11-12T15:41:39.407Z,101468.72
2022-11-12T15:44:26.167Z,101469.53
2022-11-12T15:47:19.312Z,101467.13
2022-11-12T15:50:16.471Z,101473.13
2022-11-12T15:53:02.298Z,101463.66
2022-11-12T15:55:48.880Z,101473.91
2022-11-12T15:58:37.287Z,101466.38
2022-11-12T16:01:23.335Z,101470.22
2022-11-12T16:04:09.188Z,101470.28
2022-11-12T16:06:55.219Z,101464.31
2022-11-12T16:09:41.455Z,101465.06
2022-11-12T16:12:27.970Z,101471.50
2022-11-12T16:15:16.314Z,101472.97
2022-11-12T16:18:02.664Z,101466.94
2022-11-12T16:20:49.684Z,101468.28
2022-11-12T16:23:36.780Z,101457.19
2022-11-12T16:26:26.978Z,101466.13
2022-11-12T16:29:14.398Z,101463.38
2022-11-12T16:32:01.546Z,101463.22
2022-11-12T16:34:47.640Z,101458.03
2022-11-12T16:37:33.839Z,101461.91
2022-11-12T16:40:21.736Z,101449.88
2022-11-12T16:43:07.779Z,101464.03
2022-11-12T16:45:54.131Z,101456.53
2022-11-12T16:48:41.290Z,101456.75
2022-11-12T16:51:27.315Z,101461.59
2022-11-12T16:54:13.489Z,101461.34
2022-11-12T16:56:59.660Z,101452.19
2022-11-12T16:59:45.923Z,101466.88
2022-11-12T17:02:31.739Z,101458.56
2022-11-12T17:05:20.768Z,101458.31
2022-11-12T17:08:07.029Z,101460.25
2022-11-12T17:10:53.214Z,101456.94
2022-11-12T17:13:42.514Z,101455.47
2022-11-12T17:16:29.105Z,101450.66
2022-11-12T17:19:15.264Z,101450.25
2022-11-12T17:22:02.485Z,101441.59
2022-11-12T17:24:48.569Z,101454.44
2022-11-12T17:27:34.971Z,101452.19
2022-11-12T17:30:20.918Z,101444.69
2022-11-12T17:33:06.861Z,101444.91
2022-11-12T17:35:53.152Z,101454.94
2022-11-12T17:38:40.722Z,101445.34
2022-11-12T17:41:28.517Z,101445.19
2022-11-12T17:44:16.988Z,101440.00
2022-11-12T17:47:03.280Z,101439.56
2022-11-12T17:49:49.394Z,101433.31
2022-11-12T17:52:35.300Z,101436.81
2022-11-12T17:55:22.544Z,101437.34
2022-11-12T17:58:09.079Z,101434.06
2022-11-12T18:00:55.053Z,101439.91
2022-11-12T18:03:41.708Z,101431.44
2022-11-12T18:06:29.491Z,101427.97
2022-11-12T18:09:16.267Z,101422.78
2022-11-12T18:12:03.632Z,101428.81
2022-11-12T18:14:49.759Z,101439.81
2022-11-12T18:17:36.107Z,101431.66
2022-11-12T18:20:22.258Z,101426.16
2022-11-12T18:23:08.195Z,101428.38
2022-11-12T18:25:54.342Z,101422.78
2022-11-12T18:28:41.721Z,101410.66
2022-11-12T18:31:28.521Z,101412.34
2022-11-12T18:34:15.727Z,101410.44
2022-11-12T18:37:01.803Z,101423.06
2022-11-12T18:39:47.906Z,101423.50
2022-11-12T18:42:33.896Z,101417.25
2022-11-12T18:45:21.211Z,101415.25
2022-11-12T18:48:07.733Z,101418.94
2022-11-12T18:50:54.156Z,101428.03
2022-11-12T18:53:41.367Z,101420.31
2022-11-12T18:56:30.364Z,101417.97
2022-11-12T18:59:16.691Z,101417.06
2022-11-12T19:02:03.924Z,101415.28
2022-11-12T19:04:49.791Z,101417.13
2022-11-12T19:07:35.863Z,101421.13
2022-11-12T19:10:21.765Z,101415.63
2022-11-12T19:13:07.980Z,101421.53
2022-11-12T19:15:55.230Z,101416.03
2022-11-12T19:18:43.154Z,101415.94
2022-11-12T19:21:29.459Z,101420.88
2022-11-12T19:24:15.719Z,101409.00
2022-11-12T19:27:01.856Z,101407.69
2022-11-12T19:29:49.372Z,101409.50
2022-11-12T19:32:35.575Z,101401.56
2022-11-12T19:35:22.844Z,101401.66
2022-11-12T19:38:09.131Z,101399.59
2022-11-12T19:40:55.299Z,101398.84
2022-11-12T19:43:41.693Z,101387.38
2022-11-12T19:46:27.675Z,101388.22
2022-11-12T19:49:13.905Z,101396.03
2022-11-12T19:52:01.395Z,101390.63
2022-11-12T19:54:47.364Z,101385.94
2022-11-12T19:57:33.693Z,101382.75
2022-11-12T20:00:19.739Z,101372.09
2022-11-12T20:03:05.875Z,101379.41
2022-11-12T20:05:52.616Z,101378.16
2022-11-12T20:08:40.237Z,101375.31
2022-11-12T20:11:26.487Z,101381.28
2022-11-12T20:14:12.414Z,101384.34
2022-11-12T20:16:58.351Z,101380.22
2022-11-12T20:19:44.665Z,101361.19
2022-11-12T20:22:32.249Z,101374.66
2022-11-12T20:25:19.714Z,101371.69
2022-11-12T20:28:05.852Z,101372.47
2022-11-12T20:30:52.037Z,101364.25
2022-11-12T20:33:42.227Z,101365.56
2022-11-12T20:36:29.272Z,101355.16
2022-11-12T20:39:15.241Z,101358.50
2022-11-12T20:42:02.552Z,101353.38
2022-11-12T20:44:48.824Z,101349.75
2022-11-12T20:47:35.128Z,101358.19
2022-11-12T20:50:21.193Z,101358.69
2022-11-12T20:53:07.041Z,101357.31
2022-11-12T20:55:52.893Z,101363.34
2022-11-12T20:58:40.863Z,101358.91
2022-11-12T21:01:28.903Z,101349.75
2022-11-12T21:04:14.959Z,101358.28
2022-11-12T21:07:05.110Z,101346.69
2022-11-12T21:09:51.387Z,101341.69
2022-11-12T21:12:37.408Z,101337.75
2022-11-12T21:15:24.996Z,101335.59
2022-11-12T21:18:11.165Z,101340.44
2022-11-12T21:21:01.559Z,101331.19
2022-11-12T21:23:49.092Z,101333.19
2022-11-12T21:26:35.424Z,101334.13
2022-11-12T21:29:21.603Z,101328.25
2022-11-12T21:32:09.100Z,101329.91
2022-11-12T21:34:55.562Z,101331.59
2022-11-12T21:37:41.658Z,101321.47
2022-11-12T21:40:27.906Z,101319.56
2022-11-12T21:43:14.290Z,101312.91
2022-11-12T21:46:00.928Z,101315.13
2022-11-12T21:48:54.907Z,101320.34
2022-11-12T21:51:41.470Z,101304.63
2022-11-12T21:54:27.206Z,101308.41
2022-11-12T21:57:18.502Z,101306.84
2022-11-12T22:00:34.680Z,101293.31
2022-11-12T22:03:12.078Z,101298.19
2022-11-12T22:05:59.848Z,101297.22
2022-11-12T22:08:46.516Z,101302.72
2022-11-12T22:11:32.808Z,101303.03
2022-11-12T22:14:18.974Z,101304.94
2022-11-12T22:17:04.874Z,101302.38
2022-11-12T22:19:51.042Z,101306.50
2022-11-12T22:22:38.323Z,101299.53
2022-11-12T22:25:24.165Z,101300.72
2022-11-12T22:28:10.337Z,101291.75
2022-11-12T22:30:56.604Z,101297.56
2022-11-12T22:33:43.004Z,101290.03
2022-11-12T22:36:31.162Z,101297.41
2022-11-12T22:39:18.684Z,101293.19
2022-11-12T22:42:04.922Z,101289.59
2022-11-12T22:44:51.170Z,101300.44
2022-11-12T22:47:37.192Z,101293.44
2022-11-12T22:50:23.438Z,101291.53
2022-11-12T22:53:09.523Z,101288.28
2022-11-12T22:56:01.859Z,101288.19
2022-11-12T22:58:48.436Z,101290.69
2022-11-12T23:01:36.392Z,101282.06
2022-11-12T23:04:23.368Z,101283.88
2022-11-12T23:07:09.644Z,101285.13
2022-11-12T23:09:55.731Z,101276.59
2022-11-12T23:12:43.141Z,101276.59
2022-11-12T23:15:29.275Z,101273.09
2022-11-12T23:18:15.254Z,101273.00
2022-11-12T23:21:05.135Z,101273.19
2022-11-12T23:23:51.625Z,101270.44
2022-11-12T23:26:37.530Z,101275.50
2022-11-12T23:29:24.778Z,101268.13
2022-11-12T23:32:10.996Z,101266.69
2022-11-12T23:34:56.906Z,101269.19
2022-11-12T23:37:43.184Z,101268.66
2022-11-12T23:40:31.058Z,101260.38
2022-11-12T23:43:17.216Z,101262.50
2022-11-12T23:46:04.662Z,101267.06
2022-11-12T23:48:51.140Z,101248.72
2022-11-12T23:51:36.973Z,101259.06
2022-11-12T23:54:23.172Z,101258.28
2022-11-12T23:57:09.562Z,101261.81
2022-11-12T23:59:55.376Z,101254.06
